Time;durP1;ratioP1;P1;durP2;ratioP2;P2;SDS_P1;SDS_P2;PMS_P1;PMS_P2;Temp;Humidity;BMP_temperature;BMP_pressure;BME280_temperature;BME280_humidity;BME280_pressure;Samples;Min_cycle;Max_cycle;Signal;HPM_P1;HPM_P2
2022/07/21 00:01:06;;;;;;;8.73;7.88;;;25.20;64.60;;;;;;10395639;28;20045;-62
2022/07/21 00:06:07;;;;;;;9.63;8.73;;;25.30;64.70;;;;;;10388186;28;20033;-62
2022/07/21 00:11:08;;;;;;;9.88;8.98;;;25.20;64.70;;;;;;10376813;28;20041;-62
2022/07/21 00:16:09;;;;;;;9.40;8.50;;;25.20;64.70;;;;;;10394531;28;20025;-62
2022/07/21 00:21:10;;;;;;;9.48;8.57;;;25.20;64.60;;;;;;10393760;28;20033;-62
2022/07/21 00:26:11;;;;;;;8.52;7.72;;;25.20;64.60;;;;;;10367154;28;20132;-62
2022/07/21 00:31:12;;;;;;;9.48;8.55;;;25.20;64.60;;;;;;10379426;28;20053;-62
2022/07/21 00:36:13;;;;;;;8.35;7.55;;;25.20;64.70;;;;;;10368251;28;20030;-65
2022/07/21 00:41:14;;;;;;;8.65;7.85;;;25.20;64.60;;;;;;10356415;28;20057;-62
2022/07/21 00:46:15;;;;;;;9.73;8.82;;;25.20;64.60;;;;;;10368244;28;20044;-62
2022/07/21 00:51:16;;;;;;;8.65;7.85;;;25.20;64.60;;;;;;10383898;28;20030;-62
2022/07/21 00:56:17;;;;;;;8.35;7.55;;;25.20;64.60;;;;;;10407541;28;20029;-62
2022/07/21 01:01:18;;;;;;;9.55;8.65;;;25.20;64.70;;;;;;10402186;28;20129;-62
2022/07/21 01:06:19;;;;;;;8.30;7.50;;;25.20;64.60;;;;;;10402792;28;20052;-62
2022/07/21 01:11:25;;;;;;;8.73;7.82;;;25.20;64.60;;;;;;10392849;28;20041;-62
2022/07/21 01:16:25;;;;;;;9.77;8.98;;;25.20;64.60;;;;;;10367598;28;20554;-65
2022/07/21 01:21:33;;;;;;;10.07;8.40;;;25.20;64.60;;;;;;10375433;28;20062;-62
2022/07/21 01:26:50;;;;;;;8.77;7.97;;;25.20;64.60;;;;;;10367321;28;20037;-62
2022/07/21 01:31:52;;;;;;;7.10;6.40;;;25.20;64.60;;;;;;10374658;28;20069;-62
2022/07/21 01:36:52;;;;;;;8.30;7.50;;;25.20;64.60;;;;;;10365470;28;20053;-62
2022/07/21 01:41:53;;;;;;;8.27;7.50;;;25.20;64.50;;;;;;10368131;28;20800;-62
2022/07/21 01:46:54;;;;;;;7.38;6.68;;;25.20;64.50;;;;;;10382367;28;20376;-62
2022/07/21 01:51:55;;;;;;;7.97;7.28;;;25.20;64.60;;;;;;10392070;28;20499;-62
2022/07/21 01:56:56;;;;;;;8.07;7.28;;;25.20;64.60;;;;;;10389261;28;20030;-62
2022/07/21 02:01:57;;;;;;;8.40;7.60;;;25.10;64.50;;;;;;10397711;28;20030;-62
2022/07/21 02:06:57;;;;;;;8.57;7.78;;;25.10;64.50;;;;;;10399942;28;20025;-62
2022/07/21 02:11:58;;;;;;;7.80;6.75;;;25.10;64.50;;;;;;10400003;28;20033;-64
2022/07/21 02:16:59;;;;;;;7.57;6.88;;;25.10;64.50;;;;;;10387740;28;20128;-63
2022/07/21 02:22:00;;;;;;;8.52;7.07;;;25.10;65.10;;;;;;10385442;28;20045;-62
2022/07/21 02:27:01;;;;;;;7.28;6.68;;;25.10;64.50;;;;;;10373466;28;20042;-62
2022/07/21 02:32:03;;;;;;;7.38;6.78;;;25.10;64.50;;;;;;10382880;28;20120;-62
2022/07/21 02:37:04;;;;;;;7.05;6.35;;;25.10;64.50;;;;;;10371277;28;20062;-62
2022/07/21 02:42:04;;;;;;;7.40;6.70;;;25.10;64.50;;;;;;10386381;28;20124;-62
2022/07/21 02:47:05;;;;;;;6.60;6.00;;;25.10;64.50;;;;;;10378931;28;20096;-62
2022/07/21 02:52:06;;;;;;;7.10;6.50;;;25.10;64.50;;;;;;10353414;28;20489;-62
2022/07/21 02:57:07;;;;;;;6.88;6.18;;;25.10;64.50;;;;;;10365034;28;20033;-62
2022/07/21 03:02:07;;;;;;;7.32;6.57;;;25.10;64.50;;;;;;10398067;28;20021;-62
2022/07/21 03:07:08;;;;;;;6.53;5.93;;;25.10;64.50;;;;;;10412737;28;20033;-63
2022/07/21 03:12:09;;;;;;;6.93;6.32;;;25.10;64.50;;;;;;10411339;28;20037;-62
2022/07/21 03:17:10;;;;;;;7.18;6.47;;;25.10;64.50;;;;;;10406899;28;20042;-62
2022/07/21 03:22:10;;;;;;;7.28;6.57;;;25.10;64.50;;;;;;10371004;28;20800;-62
2022/07/21 03:27:11;;;;;;;7.32;6.63;;;25.10;64.50;;;;;;10377677;28;20049;-62
2022/07/21 03:32:12;;;;;;;7.72;6.93;;;25.10;64.60;;;;;;10385742;28;20033;-62
2022/07/21 03:37:12;;;;;;;7.20;6.47;;;25.10;64.50;;;;;;10365795;28;20500;-61
2022/07/21 03:42:13;;;;;;;7.82;7.03;;;25.00;64.50;;;;;;10373209;28;20493;-62
2022/07/21 03:47:14;;;;;;;6.85;6.22;;;25.00;64.50;;;;;;10370187;28;20105;-62
2022/07/21 03:52:15;;;;;;;6.50;5.82;;;25.00;64.50;;;;;;10380156;28;20044;-62
2022/07/21 03:57:15;;;;;;;6.72;6.03;;;25.00;64.50;;;;;;10382806;28;20512;-62
2022/07/21 04:02:16;;;;;;;7.18;6.43;;;25.00;64.50;;;;;;10392065;28;20591;-62
2022/07/21 04:07:17;;;;;;;6.70;6.00;;;25.00;64.50;;;;;;10380508;28;20451;-63
2022/07/21 04:12:17;;;;;;;7.35;6.75;;;25.00;64.50;;;;;;10400114;28;20116;-62
2022/07/21 04:17:18;;;;;;;7.30;6.30;;;25.00;64.50;;;;;;10371948;28;20492;-62
2022/07/21 04:22:19;;;;;;;6.57;5.97;;;25.00;64.50;;;;;;10373781;28;20109;-62
2022/07/21 04:27:19;;;;;;;7.03;6.32;;;25.00;64.50;;;;;;10381034;28;20139;-62
2022/07/21 04:32:20;;;;;;;6.97;6.32;;;25.00;64.50;;;;;;10352857;28;20045;-63
2022/07/21 04:37:21;;;;;;;6.97;6.38;;;25.00;64.60;;;;;;10395452;28;20164;-62
2022/07/21 04:42:22;;;;;;;6.18;5.57;;;25.00;64.50;;;;;;10394312;28;20069;-63
2022/07/21 04:47:23;;;;;;;6.53;5.93;;;25.00;64.50;;;;;;10365161;28;20033;-63
2022/07/21 04:52:24;;;;;;;6.82;6.22;;;25.00;64.50;;;;;;10376653;28;20091;-62
2022/07/21 04:57:24;;;;;;;7.22;6.53;;;25.00;65.00;;;;;;10379402;28;20520;-61
2022/07/21 05:02:25;;;;;;;10.63;6.93;;;25.00;65.20;;;;;;10371104;28;20428;-60
2022/07/21 05:07:26;;;;;;;7.35;5.75;;;25.10;65.50;;;;;;10395491;28;20465;-62
2022/07/21 05:12:26;;;;;;;9.30;6.40;;;25.10;66.00;;;;;;10369960;28;20421;-61
2022/07/21 05:17:27;;;;;;;10.48;6.15;;;25.10;65.90;;;;;;10370508;28;20037;-61
2022/07/21 05:22:28;;;;;;;8.35;6.40;;;25.10;66.00;;;;;;10371919;28;20026;-65
2022/07/21 05:27:29;;;;;;;10.55;6.20;;;25.10;65.90;;;;;;10375802;28;20526;-63
2022/07/21 05:32:30;;;;;;;10.50;6.90;;;25.10;66.10;;;;;;10418912;28;20404;-63
2022/07/21 05:37:30;;;;;;;15.90;7.03;;;25.10;65.90;;;;;;10413770;28;20037;-65
2022/07/21 05:42:31;;;;;;;13.88;6.35;;;25.10;66.00;;;;;;10396862;28;20042;-62
2022/07/21 05:47:32;;;;;;;11.40;6.20;;;25.10;65.90;;;;;;10373823;28;20033;-65
2022/07/21 05:52:32;;;;;;;10.38;6.00;;;25.10;65.90;;;;;;10383416;28;20346;-64
2022/07/21 05:57:34;;;;;;;9.45;6.47;;;25.00;65.70;;;;;;10402520;28;20658;-65
2022/07/21 06:02:35;;;;;;;12.23;6.47;;;25.00;65.80;;;;;;10400256;28;20025;-63
2022/07/21 06:07:35;;;;;;;23.48;10.90;;;25.00;65.60;;;;;;10372245;28;20041;-65
2022/07/21 06:12:36;;;;;;;20.95;11.82;;;25.00;65.70;;;;;;10355923;28;20030;-64
2022/07/21 06:17:45;;;;;;;29.30;12.38;;;25.00;65.80;;;;;;10355721;28;20038;-63
2022/07/21 06:22:45;;;;;;;14.30;10.82;;;25.00;65.80;;;;;;10371836;28;20033;-63
2022/07/21 06:27:46;;;;;;;12.15;10.27;;;24.90;65.70;;;;;;10401246;28;20536;-63
2022/07/21 06:32:47;;;;;;;17.25;9.48;;;24.90;65.60;;;;;;10363354;28;20480;-63
2022/07/21 06:37:47;;;;;;;15.45;9.65;;;24.90;65.50;;;;;;10383684;28;20105;-62
2022/07/21 06:42:48;;;;;;;13.30;9.13;;;24.90;66.00;;;;;;10378244;28;20034;-62
2022/07/21 06:47:49;;;;;;;11.98;8.77;;;24.90;66.60;;;;;;10386693;28;20033;-64
2022/07/21 06:52:50;;;;;;;14.02;9.93;;;25.00;65.70;;;;;;10408381;28;20635;-63
2022/07/21 06:57:50;;;;;;;11.82;7.97;;;25.00;65.80;;;;;;10410612;28;20022;-63
2022/07/21 07:02:51;;;;;;;9.35;7.82;;;25.00;65.70;;;;;;10369024;28;20014;-64
2022/07/21 07:07:52;;;;;;;10.55;9.13;;;25.00;65.70;;;;;;10366183;28;20091;-63
2022/07/21 07:12:53;;;;;;;9.40;8.48;;;24.90;65.60;;;;;;10366350;28;20034;-63
2022/07/21 07:17:53;;;;;;;8.65;7.72;;;24.90;65.60;;;;;;10365993;28;20040;-63
2022/07/21 07:22:54;;;;;;;9.57;7.68;;;24.90;65.50;;;;;;10368133;28;20565;-63
2022/07/21 07:27:56;;;;;;;9.75;7.75;;;24.90;65.50;;;;;;10402726;28;20032;-64
2022/07/21 07:32:57;;;;;;;10.60;7.18;;;24.90;65.50;;;;;;10379427;28;20461;-63
2022/07/21 07:37:58;;;;;;;7.28;6.57;;;24.90;65.50;;;;;;10395223;28;20025;-63
2022/07/21 07:42:59;;;;;;;10.43;7.28;;;24.90;65.50;;;;;;10378477;28;20061;-63
2022/07/21 07:47:59;;;;;;;8.35;7.32;;;24.90;65.50;;;;;;10368770;28;20033;-63
2022/07/21 07:53:00;;;;;;;10.13;7.30;;;24.90;65.40;;;;;;10367495;28;20397;-63
2022/07/21 07:58:02;;;;;;;8.50;7.30;;;24.90;65.40;;;;;;10367087;28;20049;-63
2022/07/21 08:03:02;;;;;;;9.70;8.32;;;24.80;65.30;;;;;;10376178;28;20105;-63
2022/07/21 08:08:03;;;;;;;8.13;7.30;;;24.90;65.30;;;;;;10409204;28;20025;-63
2022/07/21 08:13:04;;;;;;;8.07;6.15;;;24.90;65.30;;;;;;10408886;28;20079;-63
2022/07/21 08:18:06;;;;;;;7.88;7.18;;;24.80;65.20;;;;;;10380837;28;20034;-64
2022/07/21 08:23:07;;;;;;;7.65;6.45;;;24.80;65.20;;;;;;10389929;28;20025;-63
2022/07/21 08:28:08;;;;;;;8.45;7.18;;;24.80;65.20;;;;;;10374586;28;20028;-63
2022/07/21 08:33:09;;;;;;;8.90;8.00;;;24.80;65.20;;;;;;10362807;28;20470;-63
2022/07/21 08:38:11;;;;;;;8.55;6.82;;;24.80;65.20;;;;;;10367060;28;20033;-63
2022/07/21 08:43:14;;;;;;;7.05;6.35;;;24.90;65.30;;;;;;10371671;28;20129;-62
2022/07/21 08:48:19;;;;;;;7.28;6.43;;;24.80;65.20;;;;;;10370391;28;20018;-63
2022/07/21 08:53:20;;;;;;;7.30;6.55;;;24.80;65.20;;;;;;10378473;28;20026;-63
2022/07/21 08:58:22;;;;;;;7.60;6.80;;;24.80;65.20;;;;;;10348677;28;20107;-63
2022/07/21 09:03:26;;;;;;;6.68;5.97;;;24.80;65.20;;;;;;10376314;28;20033;-62
2022/07/21 09:08:58;;;;;;;6.95;6.35;;;24.80;65.20;;;;;;10379265;28;20021;-63
2022/07/21 09:14:13;;;;;;;7.65;6.95;;;24.80;65.20;;;;;;10392688;28;20091;-63
2022/07/21 09:19:23;;;;;;;7.03;5.60;;;24.80;65.20;;;;;;10407037;28;20079;-63
2022/07/21 09:24:37;;;;;;;6.60;5.90;;;24.80;65.20;;;;;;10401478;28;20052;-62
2022/07/21 09:29:57;;;;;;;6.90;5.30;;;24.80;65.20;;;;;;10373878;28;20029;-62
2022/07/21 09:35:10;;;;;;;7.07;6.38;;;24.80;65.20;;;;;;10364494;28;20046;-62
2022/07/21 09:40:14;;;;;;;7.07;6.43;;;24.70;65.20;;;;;;10364365;28;20068;-63
2022/07/21 09:45:18;;;;;;;7.22;6.13;;;24.80;65.30;;;;;;10364428;28;20034;-62
2022/07/21 09:50:19;;;;;;;6.68;5.97;;;24.70;65.20;;;;;;10364810;28;20068;-62
2022/07/21 09:55:20;;;;;;;7.22;6.53;;;24.70;65.20;;;;;;10364542;28;20077;-62
2022/07/21 10:00:21;;;;;;;6.05;5.45;;;24.70;65.20;;;;;;10364672;28;20037;-63
2022/07/21 10:05:22;;;;;;;7.68;6.43;;;24.70;65.20;;;;;;10372957;28;20029;-63
2022/07/21 10:10:23;;;;;;;6.22;5.63;;;24.70;65.20;;;;;;10382757;28;20392;-63
2022/07/21 10:15:23;;;;;;;7.22;6.53;;;24.70;65.20;;;;;;10398881;28;20029;-63
2022/07/21 10:20:29;;;;;;;7.35;5.97;;;24.70;65.20;;;;;;10395739;28;20056;-63
2022/07/21 10:25:30;;;;;;;7.00;6.30;;;24.70;65.30;;;;;;10398253;28;20033;-63
2022/07/21 10:30:54;;;;;;;6.75;6.05;;;24.70;65.30;;;;;;10384930;28;20092;-62
2022/07/21 10:35:55;;;;;;;6.60;6.00;;;24.70;65.20;;;;;;10370452;28;20061;-62
2022/07/21 10:40:58;;;;;;;5.90;5.40;;;24.70;65.30;;;;;;10369854;28;20042;-62
2022/07/21 10:45:59;;;;;;;6.00;5.30;;;24.70;65.20;;;;;;10367000;28;20045;-62
2022/07/21 10:51:01;;;;;;;6.22;5.63;;;24.70;65.30;;;;;;10353555;28;20037;-62
2022/07/21 10:56:03;;;;;;;7.13;5.75;;;24.70;65.30;;;;;;10370085;28;20493;-62
2022/07/21 11:01:24;;;;;;;6.50;5.82;;;24.70;65.30;;;;;;10369657;28;20369;-62
2022/07/21 11:06:25;;;;;;;6.28;5.68;;;24.70;65.20;;;;;;10406268;28;20037;-63
2022/07/21 11:11:29;;;;;;;6.25;5.60;;;24.70;65.20;;;;;;10411036;28;20528;-63
2022/07/21 11:16:46;;;;;;;5.63;4.88;;;24.70;65.30;;;;;;10382585;28;20037;-63
2022/07/21 11:21:47;;;;;;;6.25;5.20;;;24.60;65.20;;;;;;10403201;28;20057;-63
2022/07/21 11:27:25;;;;;;;5.82;5.22;;;24.70;65.30;;;;;;10382030;28;20477;-62
2022/07/21 11:32:29;;;;;;;5.78;5.15;;;24.70;65.30;;;;;;10371096;28;20053;-62
2022/07/21 11:37:39;;;;;;;6.05;5.43;;;24.60;65.20;;;;;;10367961;28;20030;-62
2022/07/21 11:42:46;;;;;;;5.72;5.20;;;24.60;65.20;;;;;;10381724;28;20037;-62
2022/07/21 11:47:51;;;;;;;6.10;5.55;;;24.60;65.20;;;;;;10376562;28;20030;-62
2022/07/21 11:52:52;;;;;;;5.82;4.90;;;24.60;65.20;;;;;;10369428;28;20487;-62
2022/07/21 11:57:53;;;;;;;5.10;4.43;;;24.60;65.30;;;;;;10368448;28;20030;-63
2022/07/21 12:03:06;;;;;;;5.10;4.60;;;24.60;65.20;;;;;;10374385;28;20028;-63
2022/07/21 12:08:07;;;;;;;6.20;5.03;;;24.60;65.20;;;;;;10378054;28;20084;-62
2022/07/21 12:13:08;;;;;;;5.72;5.07;;;24.60;65.30;;;;;;10383067;28;20088;-62
2022/07/21 12:18:25;;;;;;;5.60;4.07;;;24.60;65.30;;;;;;10392424;28;20083;-62
2022/07/21 12:23:31;;;;;;;4.82;4.28;;;24.60;65.30;;;;;;10366183;28;20497;-62
2022/07/21 12:28:44;;;;;;;5.25;4.75;;;24.60;65.30;;;;;;10375765;28;20091;-63
2022/07/21 12:33:45;;;;;;;5.18;4.68;;;24.60;65.30;;;;;;10365891;28;20117;-62
2022/07/21 12:38:48;;;;;;;5.07;4.50;;;24.60;65.30;;;;;;10384776;28;20108;-62
2022/07/21 12:43:57;;;;;;;4.97;4.45;;;24.60;65.30;;;;;;10393076;28;20045;-63
2022/07/21 12:49:10;;;;;;;4.38;3.97;;;24.60;65.30;;;;;;10380211;28;20746;-63
2022/07/21 12:54:10;;;;;;;5.45;4.70;;;24.60;65.30;;;;;;10392712;28;20111;-62
2022/07/21 12:59:14;;;;;;;4.43;4.03;;;24.60;65.30;;;;;;10372906;28;20547;-64
2022/07/21 13:04:14;;;;;;;4.60;4.18;;;24.60;65.30;;;;;;10383578;28;20485;-62
2022/07/21 13:09:15;;;;;;;5.13;4.63;;;24.60;65.30;;;;;;10406249;28;20159;-62
2022/07/21 13:14:16;;;;;;;5.18;4.10;;;24.60;65.40;;;;;;10372801;28;20037;-62
2022/07/21 13:19:17;;;;;;;4.88;4.25;;;24.60;65.40;;;;;;10375366;28;20489;-62
2022/07/21 13:24:18;;;;;;;4.90;4.40;;;24.60;65.40;;;;;;10391182;28;20025;-62
2022/07/21 13:29:19;;;;;;;5.22;3.88;;;24.50;65.30;;;;;;10385954;28;20107;-62
2022/07/21 13:34:19;;;;;;;5.45;4.30;;;24.50;65.30;;;;;;10373316;28;20034;-63
2022/07/21 13:39:22;;;;;;;4.38;3.65;;;24.50;65.30;;;;;;10372826;28;20025;-62
2022/07/21 13:44:23;;;;;;;4.60;4.05;;;24.50;65.30;;;;;;10373553;28;20519;-62
2022/07/21 13:49:23;;;;;;;4.10;3.63;;;24.50;65.30;;;;;;10373339;28;20072;-61
2022/07/21 13:54:24;;;;;;;4.93;4.43;;;24.50;65.30;;;;;;10373257;28;20026;-62
2022/07/21 13:59:25;;;;;;;4.82;4.32;;;24.50;65.30;;;;;;10372890;28;20026;-62
2022/07/21 14:04:26;;;;;;;4.47;3.83;;;24.50;65.30;;;;;;10372007;28;20471;-63
2022/07/21 14:09:27;;;;;;;4.55;4.15;;;24.50;65.30;;;;;;10358632;28;20120;-62
2022/07/21 14:14:28;;;;;;;4.30;3.88;;;24.50;65.30;;;;;;10393021;28;20022;-62
2022/07/21 14:19:28;;;;;;;4.20;3.63;;;24.50;65.30;;;;;;10404717;28;20056;-63
2022/07/21 14:29:48;;;;;;;;;;;24.50;65.30;;;;;;10413938;28;20469;-62
2022/07/21 14:34:51;;;;;;;4.32;3.92;;;24.50;65.20;;;;;;10382528;28;19917;-62
2022/07/21 14:39:51;;;;;;;3.80;3.40;;;24.50;65.30;;;;;;10385755;28;20033;-62
2022/07/21 14:44:52;;;;;;;3.70;3.33;;;24.50;65.30;;;;;;10388913;28;20021;-62
2022/07/21 14:49:53;;;;;;;3.78;3.42;;;24.50;65.40;;;;;;10384292;28;20427;-61
2022/07/21 14:54:53;;;;;;;3.55;2.97;;;24.50;65.40;;;;;;10395951;28;20557;-62
2022/07/21 14:59:54;;;;;;;4.63;3.67;;;24.50;65.40;;;;;;10386777;28;20096;-62
2022/07/21 15:04:55;;;;;;;4.22;3.30;;;24.50;65.40;;;;;;10386969;28;20396;-62
2022/07/21 15:09:56;;;;;;;4.38;3.53;;;24.50;65.50;;;;;;10388734;28;20048;-62
2022/07/21 15:14:56;;;;;;;3.80;3.40;;;24.50;65.40;;;;;;10388318;28;20031;-62
2022/07/21 15:20:00;;;;;;;4.30;3.90;;;24.50;65.40;;;;;;10383825;28;20037;-64
2022/07/21 15:25:03;;;;;;;3.85;3.45;;;24.50;65.30;;;;;;10370750;28;20042;-62
2022/07/21 15:30:10;;;;;;;3.80;3.33;;;24.50;65.70;;;;;;10401305;28;20038;-62
2022/07/21 15:35:11;;;;;;;3.92;3.42;;;24.50;66.10;;;;;;10368849;28;20077;-63
2022/07/21 15:40:12;;;;;;;4.88;3.45;;;24.50;65.50;;;;;;10379411;28;20110;-62
2022/07/21 15:45:13;;;;;;;3.42;2.97;;;24.50;65.30;;;;;;10376417;28;20116;-62
2022/07/21 15:50:14;;;;;;;5.18;2.85;;;24.50;65.30;;;;;;10384996;28;20092;-63
2022/07/21 15:55:15;;;;;;;6.10;3.28;;;24.50;66.20;;;;;;10389150;28;20033;-61
2022/07/21 16:00:17;;;;;;;6.47;3.17;;;24.50;68.40;;;;;;10381962;28;20087;-62
2022/07/21 16:05:20;;;;;;;5.72;2.95;;;24.60;68.60;;;;;;10395292;28;20037;-61
2022/07/21 16:10:22;;;;;;;3.97;2.40;;;24.60;68.60;;;;;;10387302;28;20044;-60
2022/07/21 16:15:23;;;;;;;7.28;3.03;;;24.60;68.50;;;;;;10408919;28;20576;-60
2022/07/21 16:20:25;;;;;;;4.75;2.75;;;24.60;68.20;;;;;;10392945;28;20061;-61
2022/07/21 16:25:26;;;;;;;5.50;2.92;;;24.60;68.20;;;;;;10380179;28;20117;-61
2022/07/21 16:30:27;;;;;;;11.75;2.95;;;24.60;68.40;;;;;;10375515;28;20041;-61
2022/07/21 16:35:27;;;;;;;5.32;3.13;;;24.60;68.30;;;;;;10369664;28;20037;-60
2022/07/21 16:40:28;;;;;;;14.40;3.90;;;24.60;68.20;;;;;;10391541;28;20500;-60
2022/07/21 16:45:29;;;;;;;16.10;4.15;;;24.60;68.40;;;;;;10369064;28;20030;-59
2022/07/21 16:50:29;;;;;;;13.73;4.22;;;24.60;68.40;;;;;;10393320;28;20039;-61
2022/07/21 16:55:30;;;;;;;11.15;3.13;;;24.60;68.50;;;;;;10407993;28;20048;-60
2022/07/21 17:00:31;;;;;;;9.13;3.53;;;24.60;68.60;;;;;;10381057;28;20040;-59
2022/07/21 17:05:32;;;;;;;7.63;2.92;;;24.50;68.50;;;;;;10408593;28;20376;-58
2022/07/21 17:10:32;;;;;;;14.70;5.45;;;24.50;68.50;;;;;;10400534;28;20040;-60
2022/07/21 17:15:33;;;;;;;9.25;3.47;;;24.50;68.50;;;;;;10386430;28;20026;-60
2022/07/21 17:20:34;;;;;;;11.48;3.67;;;24.50;68.20;;;;;;10371464;28;20432;-58
2022/07/21 17:25:34;;;;;;;10.82;3.20;;;24.50;68.00;;;;;;10390230;28;20099;-59
2022/07/21 17:30:35;;;;;;;7.30;2.70;;;24.50;67.90;;;;;;10377820;28;20030;-60
2022/07/21 17:35:36;;;;;;;8.23;3.45;;;24.50;67.60;;;;;;10365485;28;20042;-60
2022/07/21 17:40:37;;;;;;;7.45;2.85;;;24.50;67.50;;;;;;10365904;28;20049;-59
2022/07/21 17:45:37;;;;;;;21.13;4.85;;;24.50;67.60;;;;;;10386508;28;20030;-62
2022/07/21 17:50:38;;;;;;;10.98;3.58;;;24.40;68.30;;;;;;10384896;28;20500;-61
2022/07/21 17:55:39;;;;;;;9.80;3.15;;;24.40;67.40;;;;;;10391382;28;20022;-62
2022/07/21 18:00:40;;;;;;;18.50;4.13;;;24.50;67.70;;;;;;10385088;28;20084;-61
2022/07/21 18:05:42;;;;;;;10.13;3.65;;;24.40;67.40;;;;;;10379030;28;20021;-62
2022/07/21 18:10:43;;;;;;;15.48;4.53;;;24.40;67.50;;;;;;10380774;28;20038;-62
2022/07/21 18:15:43;;;;;;;15.50;4.30;;;24.40;67.60;;;;;;10377381;28;20044;-62
2022/07/21 18:20:44;;;;;;;14.55;4.32;;;24.40;67.50;;;;;;10398318;28;20041;-62
2022/07/21 18:25:45;;;;;;;10.60;4.63;;;24.40;67.40;;;;;;10385498;28;20030;-62
2022/07/21 18:30:48;;;;;;;10.13;3.00;;;24.40;67.10;;;;;;10395034;28;20042;-62
2022/07/21 18:35:49;;;;;;;9.20;3.05;;;24.40;67.40;;;;;;10378082;28;20450;-62
2022/07/21 18:40:49;;;;;;;8.77;3.15;;;24.30;67.10;;;;;;10377314;28;20050;-62
2022/07/21 18:45:50;;;;;;;22.90;4.20;;;24.30;67.20;;;;;;10376754;28;20547;-62
2022/07/21 18:50:51;;;;;;;29.90;5.97;;;24.30;67.30;;;;;;10393078;28;20040;-62
2022/07/21 18:55:51;;;;;;;17.98;4.60;;;24.30;68.30;;;;;;10390640;28;20481;-62
2022/07/21 19:00:52;;;;;;;17.95;4.82;;;24.30;68.70;;;;;;10391917;28;20531;-62
2022/07/21 19:05:53;;;;;;;16.42;3.70;;;24.30;68.90;;;;;;10397378;28;20087;-62
2022/07/21 19:10:53;;;;;;;7.13;2.55;;;24.30;68.10;;;;;;10392731;28;20041;-60
2022/07/21 19:15:54;;;;;;;9.02;2.92;;;24.30;68.10;;;;;;10396647;28;20033;-60
2022/07/21 19:20:55;;;;;;;11.18;3.42;;;24.30;67.80;;;;;;10382093;28;20025;-61
2022/07/21 19:25:56;;;;;;;7.55;2.28;;;24.30;67.70;;;;;;10389747;28;20160;-60
2022/07/21 19:30:57;;;;;;;5.90;2.53;;;24.30;67.70;;;;;;10390041;28;20543;-61
2022/07/21 19:35:58;;;;;;;9.23;3.00;;;24.30;67.70;;;;;;10381322;28;20059;-60
2022/07/21 19:40:58;;;;;;;9.20;2.72;;;24.30;67.60;;;;;;10375684;28;20026;-61
2022/07/21 19:46:00;;;;;;;7.80;3.05;;;24.30;67.50;;;;;;10365360;28;20025;-61
2022/07/21 19:51:00;;;;;;;5.85;2.88;;;24.30;67.50;;;;;;10385303;28;20041;-60
2022/07/21 19:56:03;;;;;;;8.20;2.63;;;24.20;67.50;;;;;;10393739;28;20457;-61
2022/07/21 20:01:05;;;;;;;7.40;2.20;;;24.20;67.50;;;;;;10392741;28;20600;-61
2022/07/21 20:06:06;;;;;;;5.43;2.90;;;24.20;67.40;;;;;;10400972;28;20112;-61
2022/07/21 20:11:08;;;;;;;6.07;2.40;;;24.20;67.40;;;;;;10382852;28;20033;-60
2022/07/21 20:16:10;;;;;;;8.45;2.40;;;24.20;67.30;;;;;;10367503;28;20350;-61
2022/07/21 20:21:10;;;;;;;7.60;3.53;;;24.20;67.30;;;;;;10367214;28;20057;-61
2022/07/21 20:26:11;;;;;;;3.55;1.92;;;24.20;67.20;;;;;;10371776;28;20033;-61
2022/07/21 20:31:12;;;;;;;7.40;2.17;;;24.20;67.20;;;;;;10388033;28;20655;-61
2022/07/21 20:36:12;;;;;;;4.70;1.67;;;24.20;67.00;;;;;;10361325;28;20128;-62
2022/07/21 20:41:15;;;;;;;4.82;1.98;;;24.20;67.10;;;;;;10366835;28;20057;-61
2022/07/21 20:46:15;;;;;;;3.88;1.63;;;24.20;67.10;;;;;;10382458;28;20033;-60
2022/07/21 20:51:18;;;;;;;4.80;1.92;;;24.20;67.10;;;;;;10408343;28;20385;-61
2022/07/21 20:56:19;;;;;;;5.43;2.38;;;24.10;67.00;;;;;;10402059;28;20061;-61
2022/07/21 21:01:20;;;;;;;5.85;1.90;;;24.10;66.90;;;;;;10379091;28;20022;-61
2022/07/21 21:06:20;;;;;;;4.22;1.60;;;24.10;66.80;;;;;;10366939;28;20347;-61
2022/07/21 21:11:21;;;;;;;5.10;1.98;;;24.20;67.50;;;;;;10393722;28;20030;-60
2022/07/21 21:16:22;;;;;;;4.22;1.63;;;24.10;66.90;;;;;;10382226;28;20034;-61
2022/07/21 21:21:22;;;;;;;3.15;1.40;;;24.10;66.80;;;;;;10365686;28;20032;-61
2022/07/21 21:26:23;;;;;;;3.40;1.50;;;24.10;66.80;;;;;;10365657;28;20041;-61
2022/07/21 21:31:25;;;;;;;3.53;1.70;;;24.10;66.70;;;;;;10375450;28;20113;-61
2022/07/21 21:36:26;;;;;;;4.75;1.50;;;24.10;66.70;;;;;;10369369;28;20065;-61
2022/07/21 21:41:27;;;;;;;5.55;1.58;;;24.10;66.70;;;;;;10406245;28;20124;-61
2022/07/21 21:46:27;;;;;;;3.35;1.45;;;24.10;66.70;;;;;;10383683;28;20504;-60
2022/07/21 21:51:28;;;;;;;3.40;1.33;;;24.10;66.70;;;;;;10405525;28;20043;-60
2022/07/21 21:56:29;;;;;;;2.78;1.63;;;24.10;66.60;;;;;;10386345;28;20041;-60
2022/07/21 22:01:30;;;;;;;4.03;1.63;;;24.10;66.60;;;;;;10392867;28;20041;-61
2022/07/21 22:06:31;;;;;;;2.90;1.25;;;24.00;66.60;;;;;;10399431;28;20489;-61
2022/07/21 22:11:32;;;;;;;2.67;1.20;;;24.00;66.60;;;;;;10376279;28;20034;-61
2022/07/21 22:16:32;;;;;;;3.97;1.80;;;24.00;66.60;;;;;;10373440;28;20033;-61
2022/07/21 22:21:33;;;;;;;2.63;1.30;;;24.00;66.50;;;;;;10382501;28;20108;-60
2022/07/21 22:26:34;;;;;;;2.65;1.50;;;24.00;66.50;;;;;;10399659;28;20124;-61
2022/07/21 22:31:35;;;;;;;2.53;1.40;;;24.00;66.50;;;;;;10389594;28;20030;-61
2022/07/21 22:36:35;;;;;;;3.47;1.50;;;24.00;66.40;;;;;;10371239;28;20381;-61
2022/07/21 22:41:36;;;;;;;3.97;1.25;;;24.00;66.50;;;;;;10370931;28;20481;-62
2022/07/21 22:46:37;;;;;;;2.28;1.23;;;24.00;66.50;;;;;;10372710;28;20091;-61
2022/07/21 22:51:37;;;;;;;3.33;1.80;;;24.00;66.50;;;;;;10385139;28;20034;-61
2022/07/21 22:56:38;;;;;;;2.83;1.88;;;24.00;66.40;;;;;;10412189;28;20048;-61
2022/07/21 23:01:39;;;;;;;2.58;1.20;;;24.00;66.30;;;;;;10393546;28;20037;-61
2022/07/21 23:06:40;;;;;;;2.55;1.30;;;23.90;66.30;;;;;;10383780;28;20037;-61
2022/07/21 23:11:41;;;;;;;2.53;1.17;;;24.00;66.30;;;;;;10383252;28;20037;-61
2022/07/21 23:16:42;;;;;;;2.63;1.13;;;23.90;66.30;;;;;;10383322;28;20038;-61
2022/07/21 23:21:42;;;;;;;2.40;1.08;;;23.90;66.30;;;;;;10371167;28;20026;-61
2022/07/21 23:26:44;;;;;;;4.50;1.50;;;23.90;66.30;;;;;;10381039;28;20030;-61
2022/07/21 23:31:44;;;;;;;2.17;1.10;;;23.90;66.30;;;;;;10400810;28;20025;-61
2022/07/21 23:36:45;;;;;;;1.60;0.90;;;23.90;66.30;;;;;;10405848;28;20112;-61
2022/07/21 23:41:46;;;;;;;1.65;1.05;;;23.90;66.20;;;;;;10368872;28;20046;-61
2022/07/21 23:46:46;;;;;;;1.63;1.10;;;23.90;66.30;;;;;;10399233;28;20037;-61
2022/07/21 23:51:47;;;;;;;2.67;1.15;;;23.90;66.20;;;;;;10393174;28;20408;-61
2022/07/21 23:56:48;;;;;;;1.50;0.90;;;23.90;66.20;;;;;;10394344;28;20065;-60
